Auburn, PA

1:03 AM EDT on April 21, 2015 (GMT -0400)
Saint John St | | Change Station
CLOSE
Current Station
Personal Weather Station
Location: Schuylkill Haven, PA
Elevation: 564 ft
Nearby Weather Stations

Elev 564 ft 40.63 °N, 76.17 °W | Updated 11 seconds ago

Rain
Rain
54.9 °F
Feels Like 54.9 °F
N
0.0
Wind Variable Wind from SE

Today
High -- | Low -- °F
--% Chance of Precip.
Yesterday
High -- | Low -- °F
Precip. -- in
6:17 AM 7:49 PM
Waxing Crescent, 8% visible
Pressure 29.60 in
Visibility 3.0 miles
Clouds Few 2800 ft
Mostly Cloudy 4700 ft
Overcast 6000 ft
Dew Point 55 °F
Humidity 99%
Rainfall 0.14 in
Snow Depth Not available.
UV 0 out of 12
Pollen 1.10 out of 12
Air Quality Not available.
Flu Activity Sporadic
METAR KRDG 210454Z AUTO 08003KT 3SM +RA BR FEW028 BKN047 OVC060 14/13 A2959 RMK AO2 LTG DSNT NE-S RAB05 TSB16E43 SLP024 P0037 T01390128 401890094

More Conditions Fewer Conditions

Pressure 29.60 in
Visibility 3.0 miles
Clouds Few 2800 ft
Mostly Cloudy 4700 ft
Overcast 6000 ft
Dew Point 55 °F
Humidity 99%
Rainfall 0.14 in
Snow Depth Not available.
UV 0 out of 12
Pollen 1.10 out of 12
Air Quality Not available.
Flu Activity Sporadic
METAR KRDG 210454Z AUTO 08003KT 3SM +RA BR FEW028 BKN047 OVC060 14/13 A2959 RMK AO2 LTG DSNT NE-S RAB05 TSB16E43 SLP024 P0037 T01390128 401890094

More Conditions Fewer Conditions

Nowcast | as of 12:38 am EDT on April 21, 2015

A band of heavy rain showers will move across the region through 2 am. A rumble or two of thunder is also possible.

×

10-Day Weather Forecast

Almanac

Astronomy

Apr. 21, 2015 Rise Set
Actual Time
Civil Twilight
Nautical Twilight
Astronomical Twilight
Moon
Length of Visible Light
Length of Day
Tomorrow will be .
, % of the Moon is Illuminated

Today's Extremes

State Highs State Lows

Community

WunderPhotos

Upload Photos

1,815,316 photos uploaded!

WunderBlogs® & News

Nearby

Air Quality

  Air Quality AQ Index Pollutant
Not available.

Snow Depth

Station Depth Elevation

Earthquake Activity

City Distance Mag. Time & Date
Minimum magnitude displayed is 2.5.

Coastal Water Temperatures

Place Temperature

Stations

Nearby Weather Stations

Station Location Temp. Windchill Dew Point Humidity Wind Precip. Elev Updated Type